sensor_id;sensor_type;location;lat;lon;timestamp;temperature;humidity
17202;DHT22;8717;53.588;10.176;2022-10-15T00:02:05;13.10;99.90
17202;DHT22;8717;53.588;10.176;2022-10-15T00:04:32;13.20;99.90
17202;DHT22;8717;53.588;10.176;2022-10-15T00:06:59;13.20;99.90
17202;DHT22;8717;53.588;10.176;2022-10-15T00:09:25;13.20;99.90
17202;DHT22;8717;53.588;10.176;2022-10-15T00:11:52;13.20;99.90
17202;DHT22;8717;53.588;10.176;2022-10-15T00:14:20;13.20;99.90
17202;DHT22;8717;53.588;10.176;2022-10-15T00:16:47;13.20;99.90
17202;DHT22;8717;53.588;10.176;2022-10-15T00:19:14;13.20;99.90
17202;DHT22;8717;53.588;10.176;2022-10-15T00:21:41;13.30;99.90
17202;DHT22;8717;53.588;10.176;2022-10-15T00:24:07;13.30;99.90
17202;DHT22;8717;53.588;10.176;2022-10-15T00:26:34;13.30;99.90
17202;DHT22;8717;53.588;10.176;2022-10-15T00:29:03;13.30;99.90
17202;DHT22;8717;53.588;10.176;2022-10-15T00:31:31;13.30;99.90
17202;DHT22;8717;53.588;10.176;2022-10-15T00:34:00;13.30;99.90
17202;DHT22;8717;53.588;10.176;2022-10-15T00:36:31;13.30;99.90
17202;DHT22;8717;53.588;10.176;2022-10-15T00:38:58;13.20;99.90
17202;DHT22;8717;53.588;10.176;2022-10-15T00:41:27;13.30;99.90
17202;DHT22;8717;53.588;10.176;2022-10-15T00:43:57;13.30;99.90
17202;DHT22;8717;53.588;10.176;2022-10-15T00:46:27;13.20;99.90
17202;DHT22;8717;53.588;10.176;2022-10-15T00:48:59;13.20;99.90
17202;DHT22;8717;53.588;10.176;2022-10-15T00:51:30;13.20;99.90
17202;DHT22;8717;53.588;10.176;2022-10-15T00:53:59;13.20;99.90
17202;DHT22;8717;53.588;10.176;2022-10-15T00:56:26;13.20;99.90
17202;DHT22;8717;53.588;10.176;2022-10-15T00:58:56;13.20;99.90
17202;DHT22;8717;53.588;10.176;2022-10-15T01:01:23;13.20;99.90
17202;DHT22;8717;53.588;10.176;2022-10-15T01:03:51;13.20;99.90
17202;DHT22;8717;53.588;10.176;2022-10-15T01:06:19;13.20;99.90
17202;DHT22;8717;53.588;10.176;2022-10-15T01:08:45;13.20;99.90
17202;DHT22;8717;53.588;10.176;2022-10-15T01:11:27;13.20;99.90
17202;DHT22;8717;53.588;10.176;2022-10-15T01:14:03;13.20;99.90
17202;DHT22;8717;53.588;10.176;2022-10-15T01:16:39;13.20;99.90
17202;DHT22;8717;53.588;10.176;2022-10-15T01:19:24;13.30;99.90
17202;DHT22;8717;53.588;10.176;2022-10-15T01:22:00;13.30;99.90
17202;DHT22;8717;53.588;10.176;2022-10-15T01:24:44;13.30;99.90
17202;DHT22;8717;53.588;10.176;2022-10-15T01:27:30;13.30;99.90
17202;DHT22;8717;53.588;10.176;2022-10-15T01:30:12;13.30;99.90
17202;DHT22;8717;53.588;10.176;2022-10-15T01:32:47;13.30;99.90
17202;DHT22;8717;53.588;10.176;2022-10-15T01:35:21;13.30;99.90
17202;DHT22;8717;53.588;10.176;2022-10-15T01:37:57;13.30;99.90
17202;DHT22;8717;53.588;10.176;2022-10-15T01:40:28;13.30;99.90
17202;DHT22;8717;53.588;10.176;2022-10-15T01:42:59;13.30;99.90
17202;DHT22;8717;53.588;10.176;2022-10-15T01:45:39;13.30;99.90
17202;DHT22;8717;53.588;10.176;2022-10-15T01:48:21;13.30;99.90
17202;DHT22;8717;53.588;10.176;2022-10-15T01:50:51;13.40;99.90
17202;DHT22;8717;53.588;10.176;2022-10-15T01:53:22;13.40;99.90
17202;DHT22;8717;53.588;10.176;2022-10-15T01:55:53;13.30;99.90
17202;DHT22;8717;53.588;10.176;2022-10-15T01:58:22;13.30;99.90
17202;DHT22;8717;53.588;10.176;2022-10-15T02:00:52;13.30;99.90
17202;DHT22;8717;53.588;10.176;2022-10-15T02:03:20;13.40;99.90
17202;DHT22;8717;53.588;10.176;2022-10-15T02:05:49;13.40;99.90
17202;DHT22;8717;53.588;10.176;2022-10-15T02:08:21;13.30;99.90
17202;DHT22;8717;53.588;10.176;2022-10-15T02:10:54;13.30;99.90
17202;DHT22;8717;53.588;10.176;2022-10-15T02:13:31;13.30;99.90
17202;DHT22;8717;53.588;10.176;2022-10-15T02:16:10;13.30;99.90
17202;DHT22;8717;53.588;10.176;2022-10-15T02:18:40;13.30;99.90
17202;DHT22;8717;53.588;10.176;2022-10-15T02:21:12;13.30;99.90
17202;DHT22;8717;53.588;10.176;2022-10-15T02:23:45;13.20;99.90
17202;DHT22;8717;53.588;10.176;2022-10-15T02:26:13;13.20;99.90
17202;DHT22;8717;53.588;10.176;2022-10-15T02:28:44;13.20;99.90
17202;DHT22;8717;53.588;10.176;2022-10-15T02:31:15;13.10;99.90
17202;DHT22;8717;53.588;10.176;2022-10-15T02:33:44;13.10;99.90
17202;DHT22;8717;53.588;10.176;2022-10-15T02:36:12;13.10;99.90
17202;DHT22;8717;53.588;10.176;2022-10-15T02:38:42;13.00;99.90
17202;DHT22;8717;53.588;10.176;2022-10-15T02:41:09;13.00;99.90
17202;DHT22;8717;53.588;10.176;2022-10-15T02:43:37;12.90;99.90
17202;DHT22;8717;53.588;10.176;2022-10-15T02:46:04;12.90;99.90
17202;DHT22;8717;53.588;10.176;2022-10-15T02:48:33;12.90;99.90
17202;DHT22;8717;53.588;10.176;2022-10-15T02:51:00;12.90;99.90
17202;DHT22;8717;53.588;10.176;2022-10-15T02:53:30;12.90;99.90
17202;DHT22;8717;53.588;10.176;2022-10-15T02:55:57;12.80;99.90
17202;DHT22;8717;53.588;10.176;2022-10-15T02:58:24;12.80;99.90
17202;DHT22;8717;53.588;10.176;2022-10-15T03:00:51;12.80;99.90
17202;DHT22;8717;53.588;10.176;2022-10-15T03:03:18;12.80;99.90
17202;DHT22;8717;53.588;10.176;2022-10-15T03:05:46;12.80;99.90
17202;DHT22;8717;53.588;10.176;2022-10-15T03:08:13;12.80;99.90
17202;DHT22;8717;53.588;10.176;2022-10-15T03:10:40;12.80;99.90
17202;DHT22;8717;53.588;10.176;2022-10-15T03:13:07;12.80;99.90
17202;DHT22;8717;53.588;10.176;2022-10-15T03:15:41;12.80;99.90
17202;DHT22;8717;53.588;10.176;2022-10-15T03:18:08;12.80;99.90
17202;DHT22;8717;53.588;10.176;2022-10-15T03:20:35;12.80;99.90
17202;DHT22;8717;53.588;10.176;2022-10-15T03:23:03;12.70;99.90
17202;DHT22;8717;53.588;10.176;2022-10-15T03:25:30;12.70;99.90
17202;DHT22;8717;53.588;10.176;2022-10-15T03:28:01;12.60;99.90
17202;DHT22;8717;53.588;10.176;2022-10-15T03:30:35;12.60;99.90
17202;DHT22;8717;53.588;10.176;2022-10-15T03:33:02;12.60;99.90
17202;DHT22;8717;53.588;10.176;2022-10-15T03:35:28;12.60;99.90
17202;DHT22;8717;53.588;10.176;2022-10-15T03:37:56;12.60;99.90
17202;DHT22;8717;53.588;10.176;2022-10-15T03:40:24;12.60;99.90
17202;DHT22;8717;53.588;10.176;2022-10-15T03:42:54;12.60;99.90
17202;DHT22;8717;53.588;10.176;2022-10-15T03:45:23;12.60;99.90
17202;DHT22;8717;53.588;10.176;2022-10-15T03:48:03;12.50;99.90
17202;DHT22;8717;53.588;10.176;2022-10-15T03:50:32;12.60;99.90
17202;DHT22;8717;53.588;10.176;2022-10-15T03:53:02;12.60;99.90
17202;DHT22;8717;53.588;10.176;2022-10-15T03:55:30;12.50;99.90
17202;DHT22;8717;53.588;10.176;2022-10-15T03:57:57;12.50;99.90
17202;DHT22;8717;53.588;10.176;2022-10-15T04:00:24;12.50;99.90
17202;DHT22;8717;53.588;10.176;2022-10-15T04:02:56;12.50;99.90
17202;DHT22;8717;53.588;10.176;2022-10-15T04:05:25;12.50;99.90
17202;DHT22;8717;53.588;10.176;2022-10-15T04:07:58;12.40;99.90
17202;DHT22;8717;53.588;10.176;2022-10-15T04:10:26;12.40;99.90
17202;DHT22;8717;53.588;10.176;2022-10-15T04:12:57;12.30;99.90
17202;DHT22;8717;53.588;10.176;2022-10-15T04:15:25;12.30;99.90
17202;DHT22;8717;53.588;10.176;2022-10-15T04:18:00;12.20;99.90
17202;DHT22;8717;53.588;10.176;2022-10-15T04:20:30;12.10;99.90
17202;DHT22;8717;53.588;10.176;2022-10-15T04:23:28;12.00;99.90
17202;DHT22;8717;53.588;10.176;2022-10-15T04:26:14;11.90;99.90
17202;DHT22;8717;53.588;10.176;2022-10-15T04:28:42;11.80;99.90
17202;DHT22;8717;53.588;10.176;2022-10-15T04:31:09;11.70;99.90
17202;DHT22;8717;53.588;10.176;2022-10-15T04:33:36;11.60;99.90
17202;DHT22;8717;53.588;10.176;2022-10-15T04:36:05;11.60;99.90
17202;DHT22;8717;53.588;10.176;2022-10-15T04:38:51;11.50;99.90
17202;DHT22;8717;53.588;10.176;2022-10-15T04:41:28;11.50;99.90
17202;DHT22;8717;53.588;10.176;2022-10-15T04:44:04;11.50;99.90
17202;DHT22;8717;53.588;10.176;2022-10-15T04:46:31;11.40;99.90
17202;DHT22;8717;53.588;10.176;2022-10-15T04:49:03;11.50;99.90
17202;DHT22;8717;53.588;10.176;2022-10-15T04:51:30;11.50;99.90
17202;DHT22;8717;53.588;10.176;2022-10-15T04:54:11;11.50;99.90
17202;DHT22;8717;53.588;10.176;2022-10-15T04:56:53;11.50;99.90
17202;DHT22;8717;53.588;10.176;2022-10-15T04:59:21;11.60;99.90
17202;DHT22;8717;53.588;10.176;2022-10-15T05:02:06;11.60;99.90
17202;DHT22;8717;53.588;10.176;2022-10-15T05:04:34;11.60;99.90
17202;DHT22;8717;53.588;10.176;2022-10-15T05:07:01;11.60;99.90
17202;DHT22;8717;53.588;10.176;2022-10-15T05:09:28;11.70;99.90
17202;DHT22;8717;53.588;10.176;2022-10-15T05:11:56;11.70;99.90
17202;DHT22;8717;53.588;10.176;2022-10-15T05:14:26;11.70;99.90
17202;DHT22;8717;53.588;10.176;2022-10-15T05:17:23;11.80;99.90
17202;DHT22;8717;53.588;10.176;2022-10-15T05:19:50;11.80;99.90
17202;DHT22;8717;53.588;10.176;2022-10-15T05:22:21;11.80;99.90
17202;DHT22;8717;53.588;10.176;2022-10-15T05:24:52;11.90;99.90
17202;DHT22;8717;53.588;10.176;2022-10-15T05:27:28;11.90;99.90
17202;DHT22;8717;53.588;10.176;2022-10-15T05:29:56;11.90;99.90
17202;DHT22;8717;53.588;10.176;2022-10-15T05:32:30;12.00;99.90
17202;DHT22;8717;53.588;10.176;2022-10-15T05:34:57;12.00;99.90
17202;DHT22;8717;53.588;10.176;2022-10-15T05:37:35;12.00;99.90
17202;DHT22;8717;53.588;10.176;2022-10-15T05:40:03;12.00;99.90
17202;DHT22;8717;53.588;10.176;2022-10-15T05:42:30;12.10;99.90
17202;DHT22;8717;53.588;10.176;2022-10-15T05:44:58;12.00;99.90
17202;DHT22;8717;53.588;10.176;2022-10-15T05:47:25;12.00;99.90
17202;DHT22;8717;53.588;10.176;2022-10-15T05:50:09;12.10;99.90
17202;DHT22;8717;53.588;10.176;2022-10-15T05:52:40;12.10;99.90
17202;DHT22;8717;53.588;10.176;2022-10-15T05:55:26;12.10;99.90
17202;DHT22;8717;53.588;10.176;2022-10-15T05:57:52;12.10;99.90
17202;DHT22;8717;53.588;10.176;2022-10-15T06:00:21;12.00;99.90
17202;DHT22;8717;53.588;10.176;2022-10-15T06:02:51;12.00;99.90
17202;DHT22;8717;53.588;10.176;2022-10-15T06:05:19;12.10;99.90
17202;DHT22;8717;53.588;10.176;2022-10-15T06:07:46;12.00;99.90
17202;DHT22;8717;53.588;10.176;2022-10-15T06:10:13;12.10;99.90
17202;DHT22;8717;53.588;10.176;2022-10-15T06:12:40;12.10;99.90
17202;DHT22;8717;53.588;10.176;2022-10-15T06:15:07;12.10;99.90
17202;DHT22;8717;53.588;10.176;2022-10-15T06:17:35;12.10;99.90
17202;DHT22;8717;53.588;10.176;2022-10-15T06:20:03;12.10;99.90
17202;DHT22;8717;53.588;10.176;2022-10-15T06:22:30;12.10;99.90
17202;DHT22;8717;53.588;10.176;2022-10-15T06:24:56;12.10;99.90
17202;DHT22;8717;53.588;10.176;2022-10-15T06:27:24;12.20;99.90
17202;DHT22;8717;53.588;10.176;2022-10-15T06:29:50;12.20;99.90
17202;DHT22;8717;53.588;10.176;2022-10-15T06:32:17;12.20;99.90
17202;DHT22;8717;53.588;10.176;2022-10-15T06:34:45;12.20;99.90
17202;DHT22;8717;53.588;10.176;2022-10-15T06:37:12;12.20;99.90
17202;DHT22;8717;53.588;10.176;2022-10-15T06:39:38;12.20;99.90
17202;DHT22;8717;53.588;10.176;2022-10-15T06:42:05;12.20;99.90
17202;DHT22;8717;53.588;10.176;2022-10-15T06:44:38;12.20;99.90
17202;DHT22;8717;53.588;10.176;2022-10-15T06:47:05;12.30;99.90
17202;DHT22;8717;53.588;10.176;2022-10-15T06:49:32;12.30;99.90
17202;DHT22;8717;53.588;10.176;2022-10-15T06:52:00;12.30;99.90
17202;DHT22;8717;53.588;10.176;2022-10-15T06:54:27;12.30;99.90
17202;DHT22;8717;53.588;10.176;2022-10-15T06:56:53;12.30;99.90
17202;DHT22;8717;53.588;10.176;2022-10-15T06:59:20;12.30;99.90
17202;DHT22;8717;53.588;10.176;2022-10-15T07:01:47;12.30;99.90
17202;DHT22;8717;53.588;10.176;2022-10-15T07:04:13;12.40;99.90
17202;DHT22;8717;53.588;10.176;2022-10-15T07:06:40;12.40;99.90
17202;DHT22;8717;53.588;10.176;2022-10-15T07:09:08;12.40;99.90
17202;DHT22;8717;53.588;10.176;2022-10-15T07:11:35;12.40;99.90
17202;DHT22;8717;53.588;10.176;2022-10-15T07:16:28;12.50;99.90
17202;DHT22;8717;53.588;10.176;2022-10-15T07:18:55;12.50;99.90
17202;DHT22;8717;53.588;10.176;2022-10-15T07:21:21;12.60;99.90
17202;DHT22;8717;53.588;10.176;2022-10-15T07:23:48;12.60;99.90
17202;DHT22;8717;53.588;10.176;2022-10-15T07:26:16;12.60;99.90
17202;DHT22;8717;53.588;10.176;2022-10-15T07:28:43;12.70;99.90
17202;DHT22;8717;53.588;10.176;2022-10-15T07:31:09;12.70;99.90
17202;DHT22;8717;53.588;10.176;2022-10-15T07:33:36;12.70;99.90
17202;DHT22;8717;53.588;10.176;2022-10-15T07:36:04;12.70;99.90
17202;DHT22;8717;53.588;10.176;2022-10-15T07:38:31;12.80;99.90
17202;DHT22;8717;53.588;10.176;2022-10-15T07:40:58;12.70;99.90
17202;DHT22;8717;53.588;10.176;2022-10-15T07:43:27;12.70;99.90
17202;DHT22;8717;53.588;10.176;2022-10-15T07:45:53;12.80;99.90
17202;DHT22;8717;53.588;10.176;2022-10-15T07:48:20;12.80;99.90
17202;DHT22;8717;53.588;10.176;2022-10-15T07:50:53;12.80;99.90
17202;DHT22;8717;53.588;10.176;2022-10-15T07:53:19;12.80;99.90
17202;DHT22;8717;53.588;10.176;2022-10-15T07:55:51;12.80;99.90
17202;DHT22;8717;53.588;10.176;2022-10-15T07:58:18;12.80;99.90
17202;DHT22;8717;53.588;10.176;2022-10-15T08:00:46;12.70;99.90
17202;DHT22;8717;53.588;10.176;2022-10-15T08:03:13;12.80;99.90
17202;DHT22;8717;53.588;10.176;2022-10-15T08:05:39;12.80;99.90
17202;DHT22;8717;53.588;10.176;2022-10-15T08:08:06;12.80;99.90
17202;DHT22;8717;53.588;10.176;2022-10-15T08:10:34;12.80;99.90
17202;DHT22;8717;53.588;10.176;2022-10-15T08:13:00;12.80;99.90
17202;DHT22;8717;53.588;10.176;2022-10-15T08:15:27;12.80;99.90
17202;DHT22;8717;53.588;10.176;2022-10-15T08:17:55;12.80;99.90
17202;DHT22;8717;53.588;10.176;2022-10-15T08:20:22;12.90;99.90
17202;DHT22;8717;53.588;10.176;2022-10-15T08:22:49;12.90;99.90
17202;DHT22;8717;53.588;10.176;2022-10-15T08:25:15;12.90;99.90
17202;DHT22;8717;53.588;10.176;2022-10-15T08:27:42;13.00;99.90
17202;DHT22;8717;53.588;10.176;2022-10-15T08:30:10;13.00;99.90
17202;DHT22;8717;53.588;10.176;2022-10-15T08:32:36;13.00;99.90
17202;DHT22;8717;53.588;10.176;2022-10-15T08:35:05;13.00;99.90
17202;DHT22;8717;53.588;10.176;2022-10-15T08:37:32;13.10;99.90
17202;DHT22;8717;53.588;10.176;2022-10-15T08:39:59;13.20;99.90
17202;DHT22;8717;53.588;10.176;2022-10-15T08:42:30;13.50;99.90
17202;DHT22;8717;53.588;10.176;2022-10-15T08:44:59;13.80;99.90
17202;DHT22;8717;53.588;10.176;2022-10-15T08:47:33;14.00;99.90
17202;DHT22;8717;53.588;10.176;2022-10-15T08:50:16;14.10;99.90
17202;DHT22;8717;53.588;10.176;2022-10-15T08:52:45;14.20;99.90
17202;DHT22;8717;53.588;10.176;2022-10-15T08:55:15;14.20;99.90
17202;DHT22;8717;53.588;10.176;2022-10-15T08:57:46;14.10;99.90
17202;DHT22;8717;53.588;10.176;2022-10-15T09:00:18;14.10;99.90
17202;DHT22;8717;53.588;10.176;2022-10-15T09:02:51;14.10;99.90
17202;DHT22;8717;53.588;10.176;2022-10-15T09:05:37;14.20;99.90
17202;DHT22;8717;53.588;10.176;2022-10-15T09:08:16;14.30;99.90
17202;DHT22;8717;53.588;10.176;2022-10-15T09:10:47;14.50;99.90
17202;DHT22;8717;53.588;10.176;2022-10-15T09:13:22;14.70;99.90
17202;DHT22;8717;53.588;10.176;2022-10-15T09:15:52;14.80;99.90
17202;DHT22;8717;53.588;10.176;2022-10-15T09:18:22;15.00;99.90
17202;DHT22;8717;53.588;10.176;2022-10-15T09:20:51;15.30;99.90
17202;DHT22;8717;53.588;10.176;2022-10-15T09:23:20;15.60;99.90
17202;DHT22;8717;53.588;10.176;2022-10-15T09:25:54;15.80;99.90
17202;DHT22;8717;53.588;10.176;2022-10-15T09:28:29;16.00;99.90
17202;DHT22;8717;53.588;10.176;2022-10-15T09:30:58;16.20;99.90
17202;DHT22;8717;53.588;10.176;2022-10-15T09:33:34;16.30;99.90
17202;DHT22;8717;53.588;10.176;2022-10-15T09:36:18;16.50;99.90
17202;DHT22;8717;53.588;10.176;2022-10-15T09:38:55;16.70;99.90
17202;DHT22;8717;53.588;10.176;2022-10-15T09:41:32;17.00;99.90
17202;DHT22;8717;53.588;10.176;2022-10-15T09:44:02;17.20;99.90
17202;DHT22;8717;53.588;10.176;2022-10-15T09:46:42;17.40;99.90
17202;DHT22;8717;53.588;10.176;2022-10-15T09:49:12;17.60;99.90
17202;DHT22;8717;53.588;10.176;2022-10-15T09:51:56;17.90;99.90
17202;DHT22;8717;53.588;10.176;2022-10-15T09:54:32;18.20;99.90
17202;DHT22;8717;53.588;10.176;2022-10-15T09:57:01;18.50;99.90
17202;DHT22;8717;53.588;10.176;2022-10-15T09:59:28;18.80;99.90
17202;DHT22;8717;53.588;10.176;2022-10-15T10:01:58;19.00;99.90
17202;DHT22;8717;53.588;10.176;2022-10-15T10:04:27;19.20;99.90
17202;DHT22;8717;53.588;10.176;2022-10-15T10:06:58;19.30;99.90
17202;DHT22;8717;53.588;10.176;2022-10-15T10:09:28;19.50;99.90
17202;DHT22;8717;53.588;10.176;2022-10-15T10:11:59;19.50;99.30
17202;DHT22;8717;53.588;10.176;2022-10-15T10:14:30;19.40;99.90
17202;DHT22;8717;53.588;10.176;2022-10-15T10:17:14;19.50;99.90
17202;DHT22;8717;53.588;10.176;2022-10-15T10:19:42;19.40;99.50
17202;DHT22;8717;53.588;10.176;2022-10-15T10:22:15;19.30;99.90
17202;DHT22;8717;53.588;10.176;2022-10-15T10:24:42;19.10;99.90
17202;DHT22;8717;53.588;10.176;2022-10-15T10:27:18;19.10;99.90
17202;DHT22;8717;53.588;10.176;2022-10-15T10:29:53;19.10;99.90
17202;DHT22;8717;53.588;10.176;2022-10-15T10:32:22;19.20;99.90
17202;DHT22;8717;53.588;10.176;2022-10-15T10:34:52;19.30;99.90
17202;DHT22;8717;53.588;10.176;2022-10-15T10:37:21;19.50;99.90
17202;DHT22;8717;53.588;10.176;2022-10-15T10:39:52;19.50;99.90
17202;DHT22;8717;53.588;10.176;2022-10-15T10:42:33;19.60;99.90
17202;DHT22;8717;53.588;10.176;2022-10-15T10:45:21;19.70;99.40
17202;DHT22;8717;53.588;10.176;2022-10-15T10:47:48;19.70;98.50
17202;DHT22;8717;53.588;10.176;2022-10-15T10:50:31;19.60;98.60
17202;DHT22;8717;53.588;10.176;2022-10-15T10:53:15;19.50;98.70
17202;DHT22;8717;53.588;10.176;2022-10-15T10:55:44;19.50;99.50
17202;DHT22;8717;53.588;10.176;2022-10-15T10:58:17;19.60;99.80
17202;DHT22;8717;53.588;10.176;2022-10-15T11:00:45;19.60;99.80
17202;DHT22;8717;53.588;10.176;2022-10-15T11:03:22;19.70;99.80
17202;DHT22;8717;53.588;10.176;2022-10-15T11:06:03;19.70;98.70
17202;DHT22;8717;53.588;10.176;2022-10-15T11:08:40;19.80;98.60
17202;DHT22;8717;53.588;10.176;2022-10-15T11:11:19;19.90;99.30
17202;DHT22;8717;53.588;10.176;2022-10-15T11:13:54;20.00;99.30
17202;DHT22;8717;53.588;10.176;2022-10-15T11:16:33;20.00;99.40
17202;DHT22;8717;53.588;10.176;2022-10-15T11:19:17;20.00;98.70
17202;DHT22;8717;53.588;10.176;2022-10-15T11:21:57;20.00;98.00
17202;DHT22;8717;53.588;10.176;2022-10-15T11:24:31;19.90;98.10
17202;DHT22;8717;53.588;10.176;2022-10-15T11:27:11;19.90;98.70
17202;DHT22;8717;53.588;10.176;2022-10-15T11:29:47;19.80;98.10
17202;DHT22;8717;53.588;10.176;2022-10-15T11:32:28;19.90;98.50
17202;DHT22;8717;53.588;10.176;2022-10-15T11:35:10;20.00;98.80
17202;DHT22;8717;53.588;10.176;2022-10-15T11:37:48;20.10;97.60
17202;DHT22;8717;53.588;10.176;2022-10-15T11:40:26;20.30;98.20
17202;DHT22;8717;53.588;10.176;2022-10-15T11:43:00;20.40;98.30
17202;DHT22;8717;53.588;10.176;2022-10-15T11:45:43;20.50;98.10
17202;DHT22;8717;53.588;10.176;2022-10-15T11:48:19;20.60;96.30
17202;DHT22;8717;53.588;10.176;2022-10-15T11:50:55;20.70;96.90
17202;DHT22;8717;53.588;10.176;2022-10-15T11:53:36;20.70;96.60
17202;DHT22;8717;53.588;10.176;2022-10-15T11:56:10;20.70;96.80
17202;DHT22;8717;53.588;10.176;2022-10-15T11:58:42;20.70;96.80
17202;DHT22;8717;53.588;10.176;2022-10-15T12:01:15;20.60;95.30
17202;DHT22;8717;53.588;10.176;2022-10-15T12:03:50;20.40;96.00
17202;DHT22;8717;53.588;10.176;2022-10-15T12:06:20;20.30;95.80
17202;DHT22;8717;53.588;10.176;2022-10-15T12:08:48;20.10;95.80
17202;DHT22;8717;53.588;10.176;2022-10-15T12:11:26;19.80;96.30
17202;DHT22;8717;53.588;10.176;2022-10-15T12:13:59;19.70;96.50
17202;DHT22;8717;53.588;10.176;2022-10-15T12:16:34;19.50;96.80
17202;DHT22;8717;53.588;10.176;2022-10-15T12:19:11;19.30;97.00
17202;DHT22;8717;53.588;10.176;2022-10-15T12:21:43;19.10;97.30
17202;DHT22;8717;53.588;10.176;2022-10-15T12:24:50;18.90;97.40
17202;DHT22;8717;53.588;10.176;2022-10-15T12:27:23;18.60;97.20
17202;DHT22;8717;53.588;10.176;2022-10-15T12:32:37;18.60;98.40
17202;DHT22;8717;53.588;10.176;2022-10-15T12:35:13;18.50;98.00
17202;DHT22;8717;53.588;10.176;2022-10-15T12:37:45;18.50;98.30
17202;DHT22;8717;53.588;10.176;2022-10-15T12:40:25;18.60;98.20
17202;DHT22;8717;53.588;10.176;2022-10-15T12:42:56;18.60;98.20
17202;DHT22;8717;53.588;10.176;2022-10-15T12:45:32;18.70;98.20
17202;DHT22;8717;53.588;10.176;2022-10-15T12:54:32;18.80;97.00
17202;DHT22;8717;53.588;10.176;2022-10-15T12:57:00;18.70;96.50
17202;DHT22;8717;53.588;10.176;2022-10-15T12:59:54;18.80;97.10
17202;DHT22;8717;53.588;10.176;2022-10-15T13:02:36;18.70;96.30
17202;DHT22;8717;53.588;10.176;2022-10-15T13:05:05;18.80;97.00
17202;DHT22;8717;53.588;10.176;2022-10-15T13:07:34;18.80;97.30
17202;DHT22;8717;53.588;10.176;2022-10-15T13:10:03;18.70;97.00
17202;DHT22;8717;53.588;10.176;2022-10-15T13:12:31;18.70;97.30
17202;DHT22;8717;53.588;10.176;2022-10-15T13:15:02;18.60;97.00
17202;DHT22;8717;53.588;10.176;2022-10-15T13:20:03;18.50;97.10
17202;DHT22;8717;53.588;10.176;2022-10-15T13:22:32;18.40;97.20
17202;DHT22;8717;53.588;10.176;2022-10-15T13:24:59;18.40;97.20
17202;DHT22;8717;53.588;10.176;2022-10-15T13:27:29;18.20;97.10
17202;DHT22;8717;53.588;10.176;2022-10-15T13:29:59;18.20;97.10
17202;DHT22;8717;53.588;10.176;2022-10-15T13:32:28;18.10;97.30
17202;DHT22;8717;53.588;10.176;2022-10-15T13:34:56;18.00;97.60
17202;DHT22;8717;53.588;10.176;2022-10-15T13:37:29;18.00;97.70
17202;DHT22;8717;53.588;10.176;2022-10-15T13:39:57;17.90;97.70
17202;DHT22;8717;53.588;10.176;2022-10-15T13:42:25;17.90;98.00
17202;DHT22;8717;53.588;10.176;2022-10-15T13:44:57;17.90;97.90
17202;DHT22;8717;53.588;10.176;2022-10-15T13:47:28;17.80;97.80
17202;DHT22;8717;53.588;10.176;2022-10-15T13:50:18;17.80;98.00
17202;DHT22;8717;53.588;10.176;2022-10-15T13:52:48;17.70;97.70
17202;DHT22;8717;53.588;10.176;2022-10-15T13:55:18;17.60;98.10
17202;DHT22;8717;53.588;10.176;2022-10-15T13:57:46;17.60;98.20
17202;DHT22;8717;53.588;10.176;2022-10-15T14:00:22;17.60;98.20
17202;DHT22;8717;53.588;10.176;2022-10-15T14:05:51;17.50;98.40
17202;DHT22;8717;53.588;10.176;2022-10-15T14:08:21;17.50;98.80
17202;DHT22;8717;53.588;10.176;2022-10-15T14:10:50;17.50;99.10
17202;DHT22;8717;53.588;10.176;2022-10-15T14:13:17;17.60;99.20
17202;DHT22;8717;53.588;10.176;2022-10-15T14:15:47;17.60;99.20
17202;DHT22;8717;53.588;10.176;2022-10-15T14:18:18;17.70;99.00
17202;DHT22;8717;53.588;10.176;2022-10-15T14:20:53;17.80;99.00
17202;DHT22;8717;53.588;10.176;2022-10-15T14:23:22;17.90;99.20
17202;DHT22;8717;53.588;10.176;2022-10-15T14:25:54;17.90;99.30
17202;DHT22;8717;53.588;10.176;2022-10-15T14:28:22;17.90;99.00
17202;DHT22;8717;53.588;10.176;2022-10-15T14:30:49;18.00;98.90
17202;DHT22;8717;53.588;10.176;2022-10-15T14:33:30;18.00;98.60
17202;DHT22;8717;53.588;10.176;2022-10-15T14:36:07;17.90;98.80
17202;DHT22;8717;53.588;10.176;2022-10-15T14:38:34;17.80;98.60
17202;DHT22;8717;53.588;10.176;2022-10-15T14:41:03;17.70;98.70
17202;DHT22;8717;53.588;10.176;2022-10-15T14:43:36;17.50;98.90
17202;DHT22;8717;53.588;10.176;2022-10-15T14:46:04;17.30;99.10
17202;DHT22;8717;53.588;10.176;2022-10-15T14:48:34;17.20;99.20
17202;DHT22;8717;53.588;10.176;2022-10-15T14:51:04;17.10;99.50
17202;DHT22;8717;53.588;10.176;2022-10-15T14:53:35;17.10;99.90
17202;DHT22;8717;53.588;10.176;2022-10-15T14:56:05;17.00;99.90
17202;DHT22;8717;53.588;10.176;2022-10-15T14:58:36;16.90;99.90
17202;DHT22;8717;53.588;10.176;2022-10-15T15:01:05;16.90;99.90
17202;DHT22;8717;53.588;10.176;2022-10-15T15:03:40;16.90;99.90
17202;DHT22;8717;53.588;10.176;2022-10-15T15:06:07;16.80;99.90
17202;DHT22;8717;53.588;10.176;2022-10-15T15:08:36;16.80;99.90
17202;DHT22;8717;53.588;10.176;2022-10-15T15:11:05;16.80;99.90
17202;DHT22;8717;53.588;10.176;2022-10-15T15:13:38;16.80;99.90
17202;DHT22;8717;53.588;10.176;2022-10-15T15:16:05;16.70;99.90
17202;DHT22;8717;53.588;10.176;2022-10-15T15:18:32;16.70;99.90
17202;DHT22;8717;53.588;10.176;2022-10-15T15:21:02;16.70;99.90
17202;DHT22;8717;53.588;10.176;2022-10-15T15:23:30;16.70;99.90
17202;DHT22;8717;53.588;10.176;2022-10-15T15:25:59;16.70;99.90
17202;DHT22;8717;53.588;10.176;2022-10-15T15:28:27;16.70;99.90
17202;DHT22;8717;53.588;10.176;2022-10-15T15:30:56;16.60;99.90
17202;DHT22;8717;53.588;10.176;2022-10-15T15:33:23;16.60;99.90
17202;DHT22;8717;53.588;10.176;2022-10-15T15:35:52;16.50;99.90
17202;DHT22;8717;53.588;10.176;2022-10-15T15:38:21;16.50;99.90
17202;DHT22;8717;53.588;10.176;2022-10-15T15:40:48;16.50;99.90
17202;DHT22;8717;53.588;10.176;2022-10-15T15:43:17;16.50;99.90
17202;DHT22;8717;53.588;10.176;2022-10-15T15:45:45;16.50;99.90
17202;DHT22;8717;53.588;10.176;2022-10-15T15:48:12;16.40;99.90
17202;DHT22;8717;53.588;10.176;2022-10-15T15:50:39;16.30;99.90
17202;DHT22;8717;53.588;10.176;2022-10-15T15:53:05;16.30;99.90
17202;DHT22;8717;53.588;10.176;2022-10-15T15:55:32;16.20;99.90
17202;DHT22;8717;53.588;10.176;2022-10-15T15:57:59;16.10;99.90
17202;DHT22;8717;53.588;10.176;2022-10-15T16:00:27;16.00;99.90
17202;DHT22;8717;53.588;10.176;2022-10-15T16:02:53;15.90;99.90
17202;DHT22;8717;53.588;10.176;2022-10-15T16:05:20;15.70;99.90
17202;DHT22;8717;53.588;10.176;2022-10-15T16:07:48;15.60;99.90
17202;DHT22;8717;53.588;10.176;2022-10-15T16:10:14;15.50;99.90
17202;DHT22;8717;53.588;10.176;2022-10-15T16:12:41;15.50;99.90